Time;durP1;ratioP1;P1;durP2;ratioP2;P2;SDS_P1;SDS_P2;PMS_P1;PMS_P2;Temp;Humidity;BMP_temperature;BMP_pressure;BME280_temperature;BME280_humidity;BME280_pressure;Samples;Min_cycle;Max_cycle;Signal;HPM_P1;HPM_P2
2023/01/12 00:01:38;;;;;;;4.03;3.05;;;;;;;-145.63;100.00;61273.97;4815027;29;20031;-64
2023/01/12 00:04:05;;;;;;;5.88;3.47;;;;;;;-145.63;100.00;61273.97;4815130;29;20066;-68
2023/01/12 00:06:31;;;;;;;5.32;3.47;;;;;;;-145.63;100.00;61273.97;4815505;29;20050;-66
2023/01/12 00:08:57;;;;;;;7.95;3.50;;;;;;;-145.63;100.00;61273.97;4815428;29;20038;-66
2023/01/12 00:11:23;;;;;;;6.32;3.30;;;;;;;-145.63;100.00;61273.97;4814888;29;20055;-66
2023/01/12 00:13:49;;;;;;;5.22;3.55;;;;;;;-145.63;100.00;61273.97;4815416;29;20039;-65
2023/01/12 00:16:39;;;;;;;4.38;2.95;;;;;;;-145.63;100.00;61273.97;4815386;29;20034;-66
2023/01/12 00:19:15;;;;;;;5.68;3.78;;;;;;;-145.63;100.00;61273.97;4797409;30;20346;-65
2023/01/12 00:24:36;;;;;;;5.35;3.55;;;;;;;-145.63;100.00;61273.97;4815129;29;20039;-65
2023/01/12 00:27:04;;;;;;;5.20;3.30;;;;;;;-145.63;100.00;61273.97;4819179;29;20042;-65
2023/01/12 00:29:30;;;;;;;4.85;3.20;;;;;;;-145.63;100.00;61273.97;4802501;29;20122;-65
2023/01/12 00:31:57;;;;;;;4.90;3.10;;;;;;;-145.63;100.00;61273.97;4830947;29;20064;-66
2023/01/12 00:34:23;;;;;;;5.55;3.30;;;;;;;-145.63;100.00;61273.97;4819030;29;20034;-65
2023/01/12 00:36:49;;;;;;;5.28;3.17;;;;;;;-145.63;100.00;61273.97;4818511;29;20046;-65
2023/01/12 00:39:16;;;;;;;6.07;3.38;;;;;;;-145.63;100.00;61273.97;4818717;29;20034;-65
2023/01/12 00:47:12;;;;;;;5.80;3.28;;;;;;;-145.63;100.00;61273.97;4818796;29;20061;-65
2023/01/12 00:49:39;;;;;;;5.10;3.20;;;;;;;-145.63;100.00;61273.97;4818544;29;20030;-65
2023/01/12 00:52:06;;;;;;;5.53;3.33;;;;;;;-145.63;100.00;61273.97;4818162;29;20537;-65
2023/01/12 00:54:33;;;;;;;6.93;3.05;;;;;;;-145.63;100.00;61273.97;4818122;29;20388;-65
2023/01/12 00:56:59;;;;;;;8.57;3.35;;;;;;;-145.63;100.00;61273.97;4818480;29;20080;-66
2023/01/12 00:59:25;;;;;;;4.40;3.00;;;;;;;-145.63;100.00;61273.97;4818396;29;20106;-65
2023/01/12 01:01:50;;;;;;;8.10;3.90;;;;;;;-145.63;100.00;61273.97;4818272;29;20031;-64
2023/01/12 01:04:16;;;;;;;4.97;3.10;;;;;;;-145.63;100.00;61273.97;4802013;29;20046;-64
2023/01/12 01:06:41;;;;;;;5.93;3.40;;;;;;;-145.63;100.00;61273.97;4818109;29;20066;-64
2023/01/12 01:09:07;;;;;;;5.70;3.15;;;;;;;-145.63;100.00;61273.97;4818534;29;20215;-64
2023/01/12 01:11:34;;;;;;;4.15;2.95;;;;;;;-145.63;100.00;61273.97;4818288;29;20074;-64
2023/01/12 01:14:01;;;;;;;4.53;3.28;;;;;;;-145.63;100.00;61273.97;4818073;29;20047;-65
2023/01/12 01:16:27;;;;;;;6.25;3.10;;;;;;;-145.63;100.00;61273.97;4817877;29;20372;-65
2023/01/12 01:18:52;;;;;;;5.75;3.17;;;;;;;-145.63;100.00;61273.97;4818410;29;20041;-65
2023/01/12 01:21:18;;;;;;;5.95;3.38;;;;;;;-145.63;100.00;61273.97;4818261;29;20026;-64
2023/01/12 01:23:44;;;;;;;8.98;3.40;;;;;;;-145.63;100.00;61273.97;4818091;29;20068;-65
2023/01/12 01:26:13;;;;;;;7.53;2.95;;;;;;;-145.63;100.00;61273.97;4817647;29;20291;-65
2023/01/12 01:28:39;;;;;;;4.07;3.03;;;;;;;-145.63;100.00;61273.97;4817994;29;20046;-67
2023/01/12 01:31:07;;;;;;;5.90;3.50;;;;;;;-145.63;100.00;61273.97;4818241;29;20034;-66
2023/01/12 01:33:33;;;;;;;6.43;2.60;;;;;;;-145.63;100.00;61273.97;4801797;29;20091;-66
2023/01/12 01:35:59;;;;;;;4.60;3.35;;;;;;;-145.63;100.00;61273.97;4816851;29;20342;-65
2023/01/12 01:38:25;;;;;;;4.80;3.08;;;;;;;-145.63;100.00;61273.97;4818376;29;20030;-65
2023/01/12 01:40:51;;;;;;;5.13;2.97;;;;;;;-145.63;100.00;61273.97;4817990;29;20034;-66
2023/01/12 01:44:28;;;;;;;4.00;2.83;;;;;;;-7.38;63.14;145511.34;5107226;27;1384801;-66
2023/01/12 01:47:07;;;;;;;3.33;2.80;;;;;;;-7.38;64.21;145511.34;5137574;28;20050;-67
2023/01/12 01:49:45;;;;;;;5.63;3.20;;;;;;;-7.48;64.47;145488.66;5132245;28;20034;-70
2023/01/12 01:52:15;;;;;;;4.38;2.83;;;;;;;-7.31;64.39;145530.31;5123142;28;20035;-67
2023/01/12 01:54:49;;;;;;;5.07;2.77;;;;;;;-7.46;63.91;145492.44;5141354;28;20031;-67
2023/01/12 01:57:15;;;;;;;5.97;3.13;;;;;;;-7.36;64.36;145516.44;5141455;28;20432;-66
2023/01/12 01:59:47;;;;;;;7.35;3.35;;;;;;;-7.34;64.30;145521.47;5122322;28;20030;-67
2023/01/12 02:02:14;;;;;;;8.05;3.38;;;;;;;-7.19;63.71;145558.13;5105791;28;20023;-67
2023/01/12 02:04:40;;;;;;;4.32;3.03;;;;;;;-7.26;64.81;145541.69;5141320;28;20035;-67
2023/01/12 02:07:07;;;;;;;4.35;3.35;;;;;;;-7.46;64.74;145492.44;5102475;28;20024;-66
2023/01/12 02:09:33;;;;;;;5.85;3.58;;;;;;;-7.44;64.51;145497.47;5133352;28;20034;-67
2023/01/12 02:17:48;;;;;;;5.72;3.45;;;;;;;-7.34;65.06;145521.47;5120285;28;20028;-67
2023/01/12 02:20:39;;;;;;;5.05;3.13;;;;;;;-7.19;65.40;145559.34;5119671;28;20031;-68
2023/01/12 02:23:39;;;;;;;4.47;3.17;;;;;;;-7.23;64.13;145549.25;5072754;28;20067;-66
2023/01/12 02:26:04;;;;;;;6.65;3.50;;;;;;;-7.33;64.88;145525.25;5102455;28;20039;-67
2023/01/12 02:28:48;;;;;;;8.77;3.42;;;;;;;-7.04;64.50;145594.72;5120058;28;20040;-65
2023/01/12 02:31:32;;;;;;;5.78;3.45;;;;;;;-7.41;64.65;145505.06;5119732;28;20388;-68
2023/01/12 02:34:39;;;;;;;6.97;3.42;;;;;;;-7.47;64.97;145491.19;5119936;28;20036;-66
2023/01/12 02:37:41;;;;;;;8.13;3.50;;;;;;;-7.40;64.89;145506.31;5119339;28;20072;-66
2023/01/12 02:40:19;;;;;;;5.97;3.53;;;;;;;-7.51;64.93;145481.06;5116855;28;20425;-66
2023/01/12 02:43:20;;;;;;;7.05;3.35;;;;;;;-7.36;65.31;145517.69;5119815;28;20031;-65
2023/01/12 02:46:10;;;;;;;6.43;3.53;;;;;;;-7.32;65.46;145527.78;5114631;28;20112;-65
2023/01/12 02:48:51;;;;;;;6.72;3.53;;;;;;;-7.35;65.30;145518.97;5085162;28;20582;-65
2023/01/12 02:51:47;;;;;;;5.25;3.78;;;;;;;-7.17;64.62;145564.44;5119367;28;20030;-66
2023/01/12 02:54:17;;;;;;;6.43;3.53;;;;;;;-7.24;64.29;145545.47;5114324;28;20082;-65
2023/01/12 02:56:47;;;;;;;6.45;3.67;;;;;;;-7.28;64.01;145537.91;5106326;28;20088;-66
2023/01/12 02:59:37;;;;;;;6.10;3.83;;;;;;;-7.23;65.26;145548.00;5105863;28;20028;-64
2023/01/12 03:02:12;;;;;;;5.50;3.38;;;;;;;-7.51;65.76;145479.78;5093660;28;20059;-65
2023/01/12 03:04:40;;;;;;;5.32;3.58;;;;;;;-7.29;64.94;145534.09;5105849;28;20032;-65
2023/01/12 03:07:24;;;;;;;6.40;3.67;;;;;;;-7.28;65.69;145537.91;5105916;28;20034;-66
2023/01/12 03:09:57;;;;;;;6.43;3.47;;;;;;;-7.46;65.44;145493.69;5104956;28;20043;-65
2023/01/12 03:12:27;;;;;;;7.20;3.80;;;;;;;-7.32;64.68;145526.53;5087452;28;20212;-66
2023/01/12 03:14:57;;;;;;;7.88;4.30;;;;;;;-7.29;65.42;145534.09;5106002;28;20027;-65
2023/01/12 03:18:02;;;;;;;5.90;3.33;;;;;;;-7.35;64.82;145520.22;5105538;28;20046;-65
2023/01/12 03:20:35;;;;;;;6.00;3.53;;;;;;;-7.38;65.49;145511.34;5104796;28;20141;-65
2023/01/12 03:23:08;;;;;;;5.63;3.50;;;;;;;-7.54;65.71;145473.50;5105582;28;20296;-65
2023/01/12 03:25:37;;;;;;;6.10;3.47;;;;;;;-7.47;65.42;145489.88;5085399;28;20039;-65
2023/01/12 03:28:06;;;;;;;7.63;3.97;;;;;;;-7.44;65.71;145497.47;5102143;28;20047;-65
2023/01/12 03:30:40;;;;;;;5.25;3.38;;;;;;;-7.35;66.23;145518.97;5104323;28;20020;-65
2023/01/12 03:33:07;;;;;;;5.85;3.95;;;;;;;-7.28;66.28;145537.91;5105303;28;20043;-66
2023/01/12 03:35:41;;;;;;;4.65;3.30;;;;;;;-7.04;65.74;145596.00;5105132;28;20073;-66
2023/01/12 03:38:39;;;;;;;6.65;3.65;;;;;;;-7.18;65.77;145560.59;5105342;28;20031;-66
2023/01/12 03:41:11;;;;;;;6.63;3.55;;;;;;;-7.22;65.62;145551.78;5084851;28;20099;-65
2023/01/12 03:43:47;;;;;;;6.63;3.80;;;;;;;-7.21;65.83;145554.31;5105336;28;20051;-65
2023/01/12 03:46:23;;;;;;;8.10;4.50;;;;;;;-7.25;65.18;145544.22;5070193;28;20224;-65
2023/01/12 03:49:07;;;;;;;5.78;3.30;;;;;;;-7.39;65.34;145508.88;5085187;28;20324;-64
2023/01/12 03:51:38;;;;;;;5.43;3.33;;;;;;;-7.42;65.17;145502.53;5096667;28;20040;-65
2023/01/12 03:54:07;;;;;;;7.78;3.53;;;;;;;-7.46;65.54;145492.44;5104758;28;20027;-65
2023/01/12 03:56:36;;;;;;;6.30;3.92;;;;;;;-7.28;66.10;145537.91;5104737;28;20031;-64
2023/01/12 03:59:03;;;;;;;6.80;4.20;;;;;;;-7.14;66.07;145572.00;5086701;28;20182;-64
2023/01/12 04:01:30;;;;;;;8.68;4.00;;;;;;;-7.48;65.50;145488.66;5103874;28;20028;-64
2023/01/12 04:03:56;;;;;;;7.28;3.72;;;;;;;-7.33;65.53;145525.25;5104349;28;20039;-66
2023/01/12 04:06:22;;;;;;;6.03;4.30;;;;;;;-7.22;65.75;145550.53;5103491;28;20028;-66
2023/01/12 04:08:47;;;;;;;7.55;3.97;;;;;;;-7.20;65.53;145555.56;5104800;28;20027;-66
2023/01/12 04:13:57;;;;;;;5.90;3.60;;;;;;;-7.30;65.73;145531.56;5103644;28;20231;-65
2023/01/12 04:16:23;;;;;;;6.50;3.60;;;;;;;-7.37;66.15;145513.88;5103484;28;20024;-66
2023/01/12 04:18:48;;;;;;;6.65;3.63;;;;;;;-7.29;65.76;145534.09;5085071;28;20020;-66
2023/01/12 04:23:59;;;;;;;6.00;3.80;;;;;;;-7.07;64.99;145587.16;5085963;28;20032;-65
2023/01/12 04:26:25;;;;;;;5.47;3.70;;;;;;;-7.05;64.87;145593.47;5103574;28;20020;-65
2023/01/12 04:28:50;;;;;;;5.53;4.03;;;;;;;-7.16;64.88;145566.94;5104427;28;20055;-66
2023/01/12 04:31:16;;;;;;;8.70;3.80;;;;;;;-7.12;66.13;145575.78;5103932;28;20031;-65
2023/01/12 04:33:42;;;;;;;5.78;3.88;;;;;;;-7.10;65.54;145580.81;5104218;28;20031;-65
2023/01/12 04:36:10;;;;;;;5.85;4.18;;;;;;;-7.17;65.28;145563.16;5103341;28;20027;-66
2023/01/12 04:38:38;;;;;;;8.18;4.25;;;;;;;-7.28;65.97;145537.91;5104048;28;20189;-67
2023/01/12 04:41:05;;;;;;;6.72;4.25;;;;;;;-7.39;66.16;145508.88;5104061;28;20238;-66
2023/01/12 04:43:31;;;;;;;6.45;3.65;;;;;;;-7.44;65.74;145497.47;5077431;28;20052;-66
2023/01/12 04:45:56;;;;;;;6.13;4.18;;;;;;;-7.42;66.18;145501.25;5082822;28;20047;-66
2023/01/12 04:48:22;;;;;;;7.85;4.13;;;;;;;-7.44;65.61;145496.22;5065627;28;20054;-66
2023/01/12 04:50:49;;;;;;;7.72;4.07;;;;;;;-7.35;66.20;145518.97;5083756;28;20055;-66
2023/01/12 04:53:15;;;;;;;5.25;4.10;;;;;;;-7.26;65.26;145541.69;5083462;28;20123;-66
2023/01/12 04:55:42;;;;;;;6.50;4.25;;;;;;;-7.50;64.92;145483.56;5082548;28;20043;-66
2023/01/12 04:58:08;;;;;;;5.72;3.85;;;;;;;-7.47;65.39;145489.88;5083250;28;20024;-66
2023/01/12 05:00:34;;;;;;;7.32;4.22;;;;;;;-7.32;65.80;145527.78;5065374;28;20074;-67
2023/01/12 05:03:01;;;;;;;7.25;4.22;;;;;;;-7.48;65.51;145488.66;5083387;28;20077;-66
2023/01/12 05:05:27;;;;;;;5.72;3.88;;;;;;;-7.65;65.83;145446.97;5082423;28;20043;-66
2023/01/12 05:10:37;;;;;;;5.78;4.15;;;;;;;-7.66;66.42;145444.44;5070705;28;20033;-66
2023/01/12 05:13:03;;;;;;;8.30;4.10;;;;;;;-7.47;66.29;145491.19;5054945;28;20203;-65
2023/01/12 05:15:28;;;;;;;6.13;3.67;;;;;;;-7.66;66.01;145444.44;5055201;28;20024;-66
2023/01/12 05:17:55;;;;;;;5.80;4.07;;;;;;;-7.79;66.11;145411.63;5073625;28;20316;-68
2023/01/12 05:20:21;;;;;;;6.75;4.10;;;;;;;-7.72;65.71;145429.31;5069301;28;20087;-66
2023/01/12 05:22:51;;;;;;;5.32;3.85;;;;;;;-7.58;65.48;145463.41;5083173;28;20313;-65
2023/01/12 05:25:17;;;;;;;7.40;4.15;;;;;;;-7.80;66.34;145409.09;5064439;28;20032;-66
2023/01/12 05:27:43;;;;;;;6.40;3.92;;;;;;;-7.63;67.16;145452.00;5078090;28;20058;-68
2023/01/12 05:30:09;;;;;;;6.20;4.05;;;;;;;-7.44;66.54;145496.22;5094989;28;20047;-66
2023/01/12 05:32:37;;;;;;;7.50;4.35;;;;;;;-7.38;66.55;145511.34;5082811;28;20028;-66
2023/01/12 05:35:05;;;;;;;6.32;3.58;;;;;;;-7.46;65.36;145493.69;5064387;28;20063;-65
2023/01/12 05:37:30;;;;;;;6.97;4.43;;;;;;;-7.59;65.79;145459.63;5064684;28;20028;-67
2023/01/12 05:39:56;;;;;;;5.80;3.90;;;;;;;-7.37;65.80;145515.13;5082859;28;20059;-66
2023/01/12 05:45:06;;;;;;;5.85;3.83;;;;;;;-7.32;65.83;145526.53;5089897;28;20038;-64
2023/01/12 05:47:32;;;;;;;5.53;4.18;;;;;;;-7.34;67.03;145522.75;5102526;28;20318;-66
2023/01/12 05:49:58;;;;;;;7.15;4.15;;;;;;;-7.25;65.10;145544.22;5102853;28;20051;-68
2023/01/12 05:52:24;;;;;;;6.57;4.47;;;;;;;-7.47;65.39;145489.88;5102757;28;20281;-68
2023/01/12 05:54:49;;;;;;;6.35;4.25;;;;;;;-7.53;65.81;145476.00;5102608;28;20016;-67
2023/01/12 05:57:15;;;;;;;10.25;4.88;;;;;;;-7.54;66.71;145473.50;5102550;28;20070;-68
2023/01/12 05:59:40;;;;;;;6.43;4.13;;;;;;;-7.58;66.67;145462.09;5102757;28;20020;-67
2023/01/12 06:02:08;;;;;;;9.15;4.93;;;;;;;-7.51;66.74;145481.06;5093590;28;20091;-67
2023/01/12 06:04:33;;;;;;;8.80;4.70;;;;;;;-7.47;65.71;145491.19;5101925;28;20028;-67
2023/01/12 06:06:59;;;;;;;7.15;4.65;;;;;;;-7.49;65.78;145484.88;5096300;28;20020;-67
2023/01/12 06:09:24;;;;;;;6.72;4.97;;;;;;;-7.63;66.36;145450.75;5094423;28;20024;-66
2023/01/12 06:14:34;;;;;;;8.07;5.25;;;;;;;-7.78;67.00;145414.16;5093171;28;20288;-65
2023/01/12 06:17:00;;;;;;;6.32;4.63;;;;;;;-7.73;67.36;145426.75;5091138;28;20032;-66
2023/01/12 06:19:26;;;;;;;8.77;4.55;;;;;;;-7.64;66.82;145449.50;5094044;28;20020;-66
2023/01/12 06:21:53;;;;;;;8.63;4.88;;;;;;;-7.65;66.53;145446.97;5093809;28;20025;-65
2023/01/12 06:24:18;;;;;;;9.48;4.93;;;;;;;-7.70;66.42;145433.09;5093644;28;20245;-67
2023/01/12 06:26:45;;;;;;;8.57;4.78;;;;;;;-7.92;66.80;145380.06;5092000;28;20035;-66
2023/01/12 06:29:10;;;;;;;8.98;4.72;;;;;;;-7.67;66.89;145440.66;5098249;28;20032;-66
2023/01/12 06:31:37;;;;;;;8.82;4.70;;;;;;;-7.67;66.94;145440.66;5105945;28;20034;-65
2023/01/12 06:34:03;;;;;;;6.63;4.63;;;;;;;-7.71;66.68;145430.53;5106403;28;20090;-65
2023/01/12 06:36:29;;;;;;;9.07;4.90;;;;;;;-7.61;66.24;145454.53;5105891;28;20050;-66
2023/01/12 06:38:54;;;;;;;6.15;4.68;;;;;;;-7.61;66.53;145455.78;5106262;28;20032;-67
2023/01/12 06:44:04;;;;;;;6.85;4.75;;;;;;;-7.91;66.55;145382.59;5105689;28;20062;-67
2023/01/12 06:46:30;;;;;;;6.95;4.55;;;;;;;-7.93;66.42;145376.28;5105552;28;20032;-68
2023/01/12 06:48:56;;;;;;;7.85;4.50;;;;;;;-7.90;66.86;145383.84;5106223;28;20206;-66
2023/01/12 06:51:22;;;;;;;9.60;4.75;;;;;;;-7.78;66.81;145414.16;5106143;28;20028;-67
2023/01/12 06:53:47;;;;;;;8.80;5.25;;;;;;;-7.82;66.08;145404.06;5105367;28;20023;-67
2023/01/12 06:56:13;;;;;;;9.93;5.45;;;;;;;-7.82;66.27;145405.31;5105889;28;20024;-69
2023/01/12 06:58:41;;;;;;;7.68;4.72;;;;;;;-7.76;66.07;145419.19;5105357;28;20216;-67
2023/01/12 07:01:07;;;;;;;6.53;4.72;;;;;;;-7.69;65.55;145436.88;5103683;28;20185;-67
2023/01/12 07:03:32;;;;;;;7.57;5.00;;;;;;;-7.43;65.89;145498.75;5105701;28;20043;-67
2023/01/12 07:05:59;;;;;;;10.60;5.22;;;;;;;-7.68;66.69;145439.41;5105763;28;20145;-66
2023/01/12 07:08:25;;;;;;;8.82;5.15;;;;;;;-7.51;66.30;145479.78;5105123;28;20024;-66
2023/01/12 07:10:51;;;;;;;9.25;5.85;;;;;;;-7.76;65.78;145417.94;5105728;28;20197;-66
2023/01/12 07:13:17;;;;;;;10.95;5.32;;;;;;;-7.84;66.36;145399.00;5105484;28;20020;-67
2023/01/12 07:15:43;;;;;;;6.97;4.60;;;;;;;-7.86;66.31;145395.19;5105199;28;20031;-68
2023/01/12 07:18:08;;;;;;;6.28;4.70;;;;;;;-8.11;66.82;145333.34;5087399;28;20046;-67
2023/01/12 07:20:34;;;;;;;8.48;4.97;;;;;;;-8.00;67.39;145361.13;5105062;28;20032;-65
2023/01/12 07:23:00;;;;;;;13.93;5.40;;;;;;;-8.08;67.31;145340.94;5105032;28;20039;-66
2023/01/12 07:25:26;;;;;;;12.27;5.45;;;;;;;-7.99;66.95;145363.66;5105646;28;20031;-67
2023/01/12 07:27:54;;;;;;;7.72;4.43;;;;;;;-8.32;66.86;145281.66;5086803;28;20208;-66
2023/01/12 07:30:20;;;;;;;8.80;4.95;;;;;;;-8.15;67.65;145323.28;5104982;28;20028;-69
2023/01/12 07:32:49;;;;;;;6.60;5.00;;;;;;;-8.12;67.87;145329.56;5105173;28;20038;-67
2023/01/12 07:35:15;;;;;;;9.10;5.10;;;;;;;-7.98;67.73;145366.19;5104768;28;20024;-66
2023/01/12 07:37:49;;;;;;;8.77;4.90;;;;;;;-7.93;67.10;145376.28;5104272;28;20035;-67
2023/01/12 07:40:15;;;;;;;9.07;5.78;;;;;;;-7.96;67.33;145369.97;5104830;28;20028;-66
2023/01/12 07:42:40;;;;;;;10.88;5.93;;;;;;;-8.25;67.68;145298.03;5104096;28;20039;-66
2023/01/12 07:45:06;;;;;;;9.05;5.25;;;;;;;-8.04;68.38;145349.75;5105247;28;20032;-66
2023/01/12 07:47:32;;;;;;;10.82;5.38;;;;;;;-8.19;68.09;145313.19;5104701;28;20351;-66
2023/01/12 07:49:57;;;;;;;12.23;6.60;;;;;;;-8.04;68.29;145349.75;5103988;28;20051;-67
2023/01/12 07:52:23;;;;;;;10.65;5.97;;;;;;;-8.02;68.34;145356.09;5104333;28;20028;-68
2023/01/12 07:54:48;;;;;;;8.77;5.28;;;;;;;-7.99;68.40;145363.66;5086797;28;20072;-66
2023/01/12 07:57:14;;;;;;;11.95;5.50;;;;;;;-8.13;68.75;145327.06;5069951;28;20323;-68
2023/01/12 07:59:40;;;;;;;7.18;4.28;;;;;;;-8.44;69.31;145252.59;5103525;28;20318;-67
2023/01/12 08:02:05;;;;;;;12.25;5.30;;;;;;;-8.32;69.57;145282.91;5104632;28;20197;-68
2023/01/12 08:04:31;;;;;;;16.60;5.40;;;;;;;-8.08;68.76;145340.94;5104313;28;20044;-67
2023/01/12 08:06:57;;;;;;;9.77;5.80;;;;;;;-8.18;68.42;145315.69;5104789;28;20051;-68
2023/01/12 08:09:23;;;;;;;9.45;5.05;;;;;;;-8.05;68.80;145348.53;5103856;28;20036;-67
2023/01/12 08:11:48;;;;;;;11.13;5.18;;;;;;;-8.13;69.07;145328.31;5086554;28;20036;-68
2023/01/12 08:14:39;;;;;;;8.88;5.45;;;;;;;-8.07;69.12;145342.19;5104402;28;20024;-67
2023/01/12 08:17:17;;;;;;;15.18;6.10;;;;;;;-8.11;68.54;145332.09;5071798;28;20107;-67
2023/01/12 08:19:52;;;;;;;10.75;6.00;;;;;;;-7.78;68.19;145412.88;5103370;28;20027;-68
2023/01/12 08:22:28;;;;;;;12.70;6.03;;;;;;;-7.96;68.47;145369.97;5103746;28;20070;-67
2023/01/12 08:25:00;;;;;;;11.32;5.68;;;;;;;-7.64;68.61;145449.50;5103686;28;20091;-66
2023/01/12 08:27:31;;;;;;;9.98;5.82;;;;;;;-7.76;67.44;145417.94;5104468;28;20095;-66
2023/01/12 08:29:58;;;;;;;;;;;;;;;-7.75;68.52;145421.72;5100429;28;20026;-67
2023/01/12 08:32:27;;;;;;;7.72;5.20;;;;;;;-8.02;68.85;145356.09;5095984;28;19912;-68
2023/01/12 08:34:55;;;;;;;10.70;5.90;;;;;;;-8.07;68.70;145343.44;5077862;28;20286;-65
2023/01/12 08:37:23;;;;;;;9.45;5.75;;;;;;;-7.83;69.16;145401.53;5097542;28;20083;-66
2023/01/12 08:39:49;;;;;;;13.50;6.32;;;;;;;-7.43;68.22;145498.75;5094993;28;20023;-67
2023/01/12 08:42:15;;;;;;;10.35;5.78;;;;;;;-7.66;67.42;145443.19;5095061;28;20085;-66
2023/01/12 08:44:41;;;;;;;10.07;6.45;;;;;;;-7.53;67.82;145476.00;5096969;28;20337;-69
2023/01/12 08:47:16;;;;;;;9.70;5.50;;;;;;;-7.87;68.35;145392.66;5095929;28;20377;-66
2023/01/12 08:49:41;;;;;;;9.85;5.53;;;;;;;-7.72;68.25;145428.06;5092948;28;20028;-65
2023/01/12 08:52:07;;;;;;;10.75;6.03;;;;;;;-7.42;68.23;145502.53;5094813;28;20043;-65
2023/01/12 08:54:34;;;;;;;11.82;6.35;;;;;;;-7.53;66.75;145474.75;5095408;28;20043;-67
2023/01/12 08:57:00;;;;;;;13.23;6.63;;;;;;;-7.68;67.17;145438.13;5097389;28;20035;-67
2023/01/12 08:59:25;;;;;;;15.45;7.13;;;;;;;-7.68;67.95;145439.41;5094330;28;20028;-67
2023/01/12 09:01:51;;;;;;;13.68;6.55;;;;;;;-7.85;68.62;145397.75;5096924;28;20100;-68
2023/01/12 09:04:17;;;;;;;14.30;6.63;;;;;;;-7.78;68.41;145412.88;5097590;28;20043;-67
2023/01/12 09:06:44;;;;;;;10.93;6.15;;;;;;;-7.60;68.53;145458.31;5100307;28;20020;-67
2023/01/12 09:09:12;;;;;;;15.25;7.07;;;;;;;-7.68;67.99;145438.13;5094582;28;20070;-66
2023/01/12 09:11:40;;;;;;;12.75;6.82;;;;;;;-7.82;68.26;145404.06;5094692;28;20351;-68
2023/01/12 09:14:05;;;;;;;14.70;7.50;;;;;;;-7.45;68.47;145494.97;5093480;28;20040;-67
2023/01/12 09:16:32;;;;;;;12.30;6.90;;;;;;;-7.44;67.68;145497.47;5094039;28;20034;-66
2023/01/12 09:18:58;;;;;;;11.35;7.40;;;;;;;-7.43;67.42;145498.75;5094418;28;20024;-66
2023/01/12 09:21:26;;;;;;;13.25;7.00;;;;;;;-7.63;67.90;145450.75;5094771;28;20025;-66
2023/01/12 09:23:52;;;;;;;16.77;7.22;;;;;;;-7.33;67.71;145525.25;5094624;28;20054;-67
2023/01/12 09:26:21;;;;;;;14.43;5.82;;;;;;;-7.46;67.00;145492.44;5091811;28;20029;-67
2023/01/12 09:28:47;;;;;;;14.63;6.10;;;;;;;-7.23;66.57;145548.00;5093651;28;20364;-66
2023/01/12 09:31:15;;;;;;;14.48;6.43;;;;;;;-7.23;66.63;145549.25;5089723;28;20024;-66
2023/01/12 09:33:42;;;;;;;10.60;6.28;;;;;;;-7.03;66.28;145598.50;5095458;28;20305;-67
2023/01/12 09:36:12;;;;;;;13.23;7.68;;;;;;;-7.18;66.72;145561.91;5094421;28;20069;-66
2023/01/12 09:38:40;;;;;;;17.15;7.07;;;;;;;-7.41;67.10;145503.78;5089865;28;20039;-65
2023/01/12 09:41:15;;;;;;;15.52;7.20;;;;;;;-7.54;67.76;145473.50;5084572;28;20028;-66
2023/01/12 09:49:24;;;;;;;14.55;7.53;;;;;;;-7.55;67.81;145470.97;5092736;28;20064;-66
2023/01/12 09:52:16;;;;;;;17.35;7.25;;;;;;;-7.34;67.15;145521.47;5093438;28;20261;-66
2023/01/12 09:54:43;;;;;;;15.77;6.90;;;;;;;-7.55;67.91;145470.97;5095440;28;20048;-66
2023/01/12 09:57:29;;;;;;;15.52;7.20;;;;;;;-7.42;67.29;145502.53;5075957;28;20204;-67
2023/01/12 10:00:07;;;;;;;17.65;7.07;;;;;;;-7.45;67.05;145494.97;5094802;28;20048;-67
2023/01/12 10:02:36;;;;;;;16.70;7.65;;;;;;;-7.79;67.43;145411.63;5102355;28;20324;-65
2023/01/12 10:05:10;;;;;;;21.33;7.18;;;;;;;-7.69;68.01;145436.88;5105245;28;20316;-66
2023/01/12 10:07:36;;;;;;;14.98;6.55;;;;;;;-7.36;67.01;145517.69;5107018;28;20063;-65
2023/01/12 10:10:01;;;;;;;19.38;6.75;;;;;;;-7.40;68.16;145506.31;5107006;28;20243;-65
2023/01/12 10:12:40;;;;;;;19.45;7.00;;;;;;;-7.31;67.15;145529.03;5106878;28;20024;-66
2023/01/12 10:15:18;;;;;;;14.02;6.68;;;;;;;-7.19;67.93;145558.13;5106899;28;20058;-65
2023/01/12 10:18:15;;;;;;;16.65;7.07;;;;;;;-6.95;67.41;145617.47;5106791;28;20343;-66
2023/01/12 10:20:43;;;;;;;21.23;7.28;;;;;;;-7.13;67.28;145573.25;5064693;28;20209;-65
2023/01/12 10:23:08;;;;;;;14.95;7.65;;;;;;;-6.92;66.93;145625.06;5106896;28;20327;-66
2023/01/12 10:25:42;;;;;;;17.83;6.93;;;;;;;-7.25;67.91;145542.94;5106432;28;20050;-66
2023/01/12 10:28:29;;;;;;;10.82;6.50;;;;;;;-7.05;67.19;145593.47;5106852;28;20035;-66
2023/01/12 10:30:56;;;;;;;20.50;7.65;;;;;;;-7.05;67.12;145593.47;5106138;28;20043;-66
2023/01/12 10:33:33;;;;;;;19.55;7.53;;;;;;;-7.17;67.19;145563.16;5106293;28;20332;-66
2023/01/12 10:35:58;;;;;;;18.33;6.88;;;;;;;-6.94;67.10;145619.97;5106452;28;20096;-66
2023/01/12 10:38:38;;;;;;;12.00;6.43;;;;;;;-6.72;66.59;145673.09;5106059;28;20063;-66
2023/01/12 10:41:09;;;;;;;14.38;6.93;;;;;;;-6.82;66.53;145650.31;5085929;28;20032;-65
2023/01/12 10:43:36;;;;;;;15.82;7.43;;;;;;;-6.87;67.23;145637.66;5102716;28;20363;-66
2023/01/12 10:46:12;;;;;;;17.38;6.68;;;;;;;-7.02;66.64;145601.06;5098276;28;20116;-66
2023/01/12 10:48:42;;;;;;;16.00;6.88;;;;;;;-7.35;67.35;145520.22;5105291;28;20038;-64
2023/01/12 10:51:29;;;;;;;14.80;6.55;;;;;;;-7.19;67.88;145558.13;5106272;28;20031;-66
2023/01/12 10:53:54;;;;;;;14.40;7.03;;;;;;;-7.24;67.97;145545.47;5106151;28;20024;-65
2023/01/12 10:56:39;;;;;;;20.20;6.90;;;;;;;-7.19;67.69;145559.34;5105655;28;20031;-65
2023/01/12 10:59:10;;;;;;;15.82;6.20;;;;;;;-6.82;66.65;145650.31;5085825;28;20032;-67
2023/01/12 11:02:12;;;;;;;15.20;6.45;;;;;;;-6.69;67.37;145680.66;5102965;28;20039;-66
2023/01/12 11:04:38;;;;;;;;;;;;;;;-6.80;66.66;145654.09;5004901;28;20069;-65
2023/01/12 11:07:12;;;;;;;23.05;6.80;;;;;;;-6.72;67.33;145673.09;5085914;28;19971;-66
2023/01/12 11:09:38;;;;;;;14.05;6.53;;;;;;;-6.80;66.69;145655.41;5087361;28;20193;-66
2023/01/12 11:12:28;;;;;;;16.90;7.07;;;;;;;-6.87;67.05;145636.41;5105749;28;20263;-66
2023/01/12 11:15:02;;;;;;;25.35;8.30;;;;;;;-7.09;68.04;145583.38;5105259;28;20053;-65
2023/01/12 11:20:22;;;;;;;13.38;6.75;;;;;;;-6.99;68.16;145607.38;5085636;28;20232;-65
2023/01/12 11:22:52;;;;;;;13.30;6.63;;;;;;;-7.14;68.70;145570.72;5103910;28;20047;-65
2023/01/12 11:25:22;;;;;;;13.85;6.53;;;;;;;-7.08;67.93;145585.91;5105507;28;20016;-68
2023/01/12 11:28:00;;;;;;;15.30;6.70;;;;;;;-7.12;68.57;145575.78;5105345;28;20051;-66
2023/01/12 11:30:35;;;;;;;15.68;6.82;;;;;;;-7.14;67.73;145570.72;5104774;28;20313;-65
2023/01/12 11:33:07;;;;;;;13.68;6.47;;;;;;;-7.08;68.78;145585.91;5105442;28;20028;-65
2023/01/12 11:35:39;;;;;;;20.00;5.78;;;;;;;-7.22;68.70;145551.78;5105111;28;20101;-65
2023/01/12 11:38:10;;;;;;;;;;;;;;;-7.11;68.49;145579.59;5085636;28;20197;-65
2023/01/12 11:40:37;;;;;;;19.92;6.90;;;;;;;-7.15;69.17;145569.47;5083773;28;20208;-66
2023/01/12 11:46:16;;;;;;;20.13;6.78;;;;;;;-7.09;68.91;145583.38;5103919;28;20039;-65
2023/01/12 11:48:53;;;;;;;25.15;6.72;;;;;;;-7.13;68.97;145574.50;5104686;28;20190;-65
2023/01/12 11:51:18;;;;;;;13.80;6.20;;;;;;;-7.01;69.00;145602.28;5105066;28;20308;-65
2023/01/12 11:53:44;;;;;;;16.85;5.90;;;;;;;-7.24;68.61;145546.72;5104979;28;20024;-66
2023/01/12 11:56:25;;;;;;;12.18;5.60;;;;;;;-7.04;69.33;145596.00;5105187;28;20054;-66
2023/01/12 11:59:03;;;;;;;13.00;5.82;;;;;;;-7.00;68.75;145604.84;5086744;28;20047;-65
2023/01/12 12:01:39;;;;;;;16.25;6.30;;;;;;;-6.99;68.71;145607.38;5104673;28;20044;-66
2023/01/12 12:04:30;;;;;;;16.45;6.05;;;;;;;-7.13;68.67;145573.25;5104666;28;20020;-65
2023/01/12 12:07:24;;;;;;;13.02;5.80;;;;;;;-6.94;68.60;145619.97;5104215;28;20043;-65
2023/01/12 12:10:22;;;;;;;11.40;5.90;;;;;;;-7.04;69.05;145594.72;5104463;28;20032;-66
2023/01/12 12:13:13;;;;;;;15.60;6.22;;;;;;;-7.07;69.10;145587.16;5069923;28;20060;-66
2023/01/12 12:15:51;;;;;;;14.18;6.30;;;;;;;-6.96;68.78;145616.19;5048247;28;20036;-65
2023/01/12 12:18:45;;;;;;;10.93;5.75;;;;;;;-7.10;69.51;145580.81;5085780;28;20272;-66
2023/01/12 12:21:38;;;;;;;13.70;5.63;;;;;;;-6.90;69.06;145630.09;5086215;28;20335;-65